Time;durP1;ratioP1;P1;durP2;ratioP2;P2;SDS_P1;SDS_P2;PMS_P1;PMS_P2;Temp;Humidity;BMP_temperature;BMP_pressure;BME280_temperature;BME280_humidity;BME280_pressure;Samples;Min_cycle;Max_cycle;Signal;HPM_P1;HPM_P2
2023/07/21 00:01:28;;;;;;;1.25;0.77;;;14.20;99.90;;;;;;5073100;28;20052;-70
2023/07/21 00:03:54;;;;;;;3.25;0.80;;;14.20;99.90;;;;;;5040759;28;20040;-69
2023/07/21 00:06:19;;;;;;;2.65;0.88;;;14.20;99.90;;;;;;5051284;28;20047;-69
2023/07/21 00:08:45;;;;;;;1.92;1.00;;;14.10;99.90;;;;;;5066347;28;20122;-69
2023/07/21 00:11:11;;;;;;;6.20;0.80;;;14.10;99.90;;;;;;5020264;28;20068;-69
2023/07/21 00:13:37;;;;;;;1.60;0.75;;;14.10;99.90;;;;;;5040116;28;20087;-70
2023/07/21 00:16:04;;;;;;;1.92;0.75;;;14.10;99.90;;;;;;5017340;28;20578;-69
2023/07/21 00:18:30;;;;;;;2.00;0.82;;;14.10;99.90;;;;;;5040682;28;20037;-69
2023/07/21 00:20:56;;;;;;;1.92;0.93;;;14.10;99.90;;;;;;5070550;28;21183;-69
2023/07/21 00:23:26;;;;;;;1.88;0.90;;;14.10;99.90;;;;;;5034960;28;20541;-70
2023/07/21 00:25:52;;;;;;;3.40;1.00;;;14.10;99.90;;;;;;5038569;28;20119;-69
2023/07/21 00:28:18;;;;;;;2.38;0.70;;;14.10;99.90;;;;;;5038424;28;20399;-70
2023/07/21 00:30:46;;;;;;;2.10;1.02;;;14.10;99.90;;;;;;5037117;28;20051;-70
2023/07/21 00:33:13;;;;;;;2.17;0.88;;;14.00;99.90;;;;;;5040456;28;20033;-70
2023/07/21 00:35:40;;;;;;;2.28;0.90;;;14.10;99.90;;;;;;5040653;28;20112;-70
2023/07/21 00:38:06;;;;;;;1.40;0.73;;;14.10;99.90;;;;;;5038379;28;20198;-69
2023/07/21 00:40:35;;;;;;;1.10;0.73;;;14.00;99.90;;;;;;5038207;28;20478;-70
2023/07/21 00:43:00;;;;;;;2.28;0.80;;;14.00;99.90;;;;;;5037523;28;20037;-70
2023/07/21 00:45:28;;;;;;;1.80;0.88;;;14.00;99.90;;;;;;5039068;28;20410;-70
2023/07/21 00:47:56;;;;;;;4.80;1.70;;;14.00;99.90;;;;;;5040244;28;20037;-69
2023/07/21 00:50:23;;;;;;;2.33;1.55;;;14.00;99.90;;;;;;5020297;28;20145;-70
2023/07/21 00:52:50;;;;;;;2.97;1.80;;;14.00;99.90;;;;;;5037230;28;20119;-70
2023/07/21 00:55:16;;;;;;;2.72;1.30;;;14.00;99.90;;;;;;5040244;28;20069;-70
2023/07/21 00:57:43;;;;;;;4.90;1.52;;;13.90;99.90;;;;;;5068295;28;20025;-70
2023/07/21 01:00:12;;;;;;;6.28;1.63;;;13.90;99.90;;;;;;5038500;28;20294;-70
2023/07/21 01:02:38;;;;;;;3.97;1.60;;;14.00;99.90;;;;;;5015205;28;20033;-70
2023/07/21 01:05:05;;;;;;;2.53;1.38;;;13.90;99.90;;;;;;5039650;28;20030;-69
2023/07/21 01:07:32;;;;;;;2.80;1.20;;;13.90;99.90;;;;;;5071328;28;20092;-69
2023/07/21 01:09:58;;;;;;;2.03;1.30;;;14.00;99.90;;;;;;5037718;28;20124;-69
2023/07/21 01:12:25;;;;;;;2.78;0.98;;;13.90;99.90;;;;;;5039207;28;20499;-69
2023/07/21 01:14:51;;;;;;;1.90;1.10;;;13.90;99.90;;;;;;5039982;28;20040;-69
2023/07/21 01:17:19;;;;;;;2.50;1.17;;;13.90;99.90;;;;;;5038531;28;20033;-69
2023/07/21 01:19:48;;;;;;;4.88;1.70;;;13.90;99.90;;;;;;5043374;28;20438;-70
2023/07/21 01:22:28;;;;;;;2.92;1.20;;;13.90;99.90;;;;;;5057928;28;20037;-69
2023/07/21 01:24:53;;;;;;;4.00;1.35;;;13.80;99.90;;;;;;5038572;28;20045;-69
2023/07/21 01:27:21;;;;;;;2.92;1.48;;;13.80;99.90;;;;;;5040734;28;20426;-70
2023/07/21 01:29:48;;;;;;;2.95;1.10;;;13.80;99.90;;;;;;5043275;28;20620;-69
2023/07/21 01:32:17;;;;;;;3.22;1.48;;;13.80;99.90;;;;;;5071855;28;20045;-69
2023/07/21 01:34:43;;;;;;;3.20;1.30;;;13.80;99.90;;;;;;5043245;28;20496;-69
2023/07/21 01:37:11;;;;;;;2.20;1.10;;;13.80;99.90;;;;;;5039589;28;20037;-69
2023/07/21 01:39:38;;;;;;;3.28;1.65;;;13.70;99.90;;;;;;5045684;28;20454;-69
2023/07/21 01:42:05;;;;;;;3.20;1.45;;;13.80;99.90;;;;;;5060314;28;20048;-69
2023/07/21 01:44:31;;;;;;;2.80;1.30;;;13.80;99.90;;;;;;5078560;28;20520;-69
2023/07/21 01:46:57;;;;;;;4.50;1.52;;;13.70;99.90;;;;;;5046741;28;20036;-69
2023/07/21 01:49:23;;;;;;;3.00;1.60;;;13.70;99.90;;;;;;5078651;28;20037;-69
2023/07/21 01:51:50;;;;;;;2.80;1.20;;;13.70;99.90;;;;;;5075494;28;20040;-70
2023/07/21 01:54:46;;;;;;;2.75;1.17;;;13.70;99.90;;;;;;5038194;28;20037;-70
2023/07/21 01:57:17;;;;;;;3.55;1.58;;;13.70;99.90;;;;;;5041680;28;20273;-70
2023/07/21 01:59:46;;;;;;;2.05;1.30;;;13.60;99.90;;;;;;5039656;28;20032;-69
2023/07/21 02:02:13;;;;;;;4.05;1.35;;;13.60;99.90;;;;;;5043090;28;20048;-70
2023/07/21 02:04:39;;;;;;;3.25;1.00;;;13.60;99.90;;;;;;5042084;28;20045;-69
2023/07/21 02:07:05;;;;;;;2.30;0.93;;;13.60;99.90;;;;;;5041678;28;20577;-70
2023/07/21 02:09:31;;;;;;;2.55;0.90;;;13.60;99.90;;;;;;5042669;28;20029;-70
2023/07/21 02:11:58;;;;;;;2.97;1.15;;;13.60;99.90;;;;;;5043016;28;20033;-69
2023/07/21 02:14:24;;;;;;;1.80;0.95;;;13.50;99.90;;;;;;5040636;28;20041;-70
2023/07/21 02:16:49;;;;;;;3.50;1.30;;;13.50;99.90;;;;;;5074028;28;20387;-70
2023/07/21 02:19:15;;;;;;;1.98;1.10;;;13.50;99.90;;;;;;5043152;28;20041;-70
2023/07/21 02:21:41;;;;;;;2.50;1.13;;;13.50;99.90;;;;;;5039179;28;20037;-70
2023/07/21 02:24:07;;;;;;;2.70;1.30;;;13.50;99.90;;;;;;5023508;28;20040;-70
2023/07/21 02:26:32;;;;;;;3.25;1.40;;;13.50;99.90;;;;;;5024780;28;20061;-70
2023/07/21 02:28:59;;;;;;;1.70;0.77;;;13.40;99.90;;;;;;5041821;28;20053;-70
2023/07/21 02:31:24;;;;;;;2.50;1.00;;;13.40;99.90;;;;;;5040923;28;20037;-70
2023/07/21 02:33:50;;;;;;;1.38;0.90;;;13.50;99.90;;;;;;5074339;28;20051;-69
2023/07/21 02:36:16;;;;;;;2.13;0.95;;;13.40;99.90;;;;;;5042506;28;20120;-70
2023/07/21 02:38:41;;;;;;;2.33;0.88;;;13.40;99.90;;;;;;5042168;28;20505;-70
2023/07/21 02:41:08;;;;;;;1.40;0.70;;;13.40;99.90;;;;;;5057117;28;20147;-70
2023/07/21 02:43:34;;;;;;;1.77;0.98;;;13.40;99.90;;;;;;5022724;28;20214;-70
2023/07/21 02:46:00;;;;;;;3.30;1.00;;;13.40;99.90;;;;;;5041188;28;20520;-70
2023/07/21 02:48:26;;;;;;;1.60;0.70;;;13.40;99.90;;;;;;5041522;28;20202;-69
2023/07/21 02:50:55;;;;;;;2.38;0.98;;;13.40;99.90;;;;;;5036087;28;20051;-70
2023/07/21 02:53:21;;;;;;;1.65;0.60;;;13.40;99.90;;;;;;5042232;28;20065;-70
2023/07/21 02:55:47;;;;;;;1.63;0.80;;;13.40;99.90;;;;;;5070844;28;20068;-70
2023/07/21 02:58:15;;;;;;;1.17;0.80;;;13.40;99.90;;;;;;5039655;28;20049;-70
2023/07/21 03:00:41;;;;;;;2.10;0.93;;;13.30;99.90;;;;;;5041008;28;20168;-70
2023/07/21 03:03:08;;;;;;;0.65;0.40;;;13.40;99.90;;;;;;5056538;28;20263;-70
2023/07/21 03:05:35;;;;;;;1.02;0.40;;;13.30;99.90;;;;;;5022980;28;20487;-70
2023/07/21 03:08:02;;;;;;;1.67;0.50;;;13.30;99.90;;;;;;5040469;28;20042;-70
2023/07/21 03:10:27;;;;;;;2.05;0.80;;;13.30;99.90;;;;;;5020526;28;20092;-70
2023/07/21 03:12:53;;;;;;;1.00;0.60;;;13.20;99.90;;;;;;5025332;28;20515;-70
2023/07/21 03:15:19;;;;;;;1.17;0.60;;;13.20;99.90;;;;;;5041579;28;20122;-70
2023/07/21 03:17:46;;;;;;;0.88;0.52;;;13.20;99.90;;;;;;5020604;28;20522;-70
2023/07/21 03:20:12;;;;;;;1.58;0.70;;;13.20;99.90;;;;;;5038263;28;20025;-70
2023/07/21 03:22:42;;;;;;;1.27;0.50;;;13.10;99.90;;;;;;5039570;28;20037;-70
2023/07/21 03:25:09;;;;;;;0.63;0.32;;;13.10;99.90;;;;;;5073016;28;20445;-70
2023/07/21 03:27:35;;;;;;;1.23;0.68;;;13.10;99.90;;;;;;5038504;28;20048;-71
2023/07/21 03:30:01;;;;;;;1.13;0.50;;;13.00;99.90;;;;;;5040587;28;20135;-70
2023/07/21 03:32:27;;;;;;;2.03;0.80;;;13.00;99.90;;;;;;5069639;28;20040;-70
2023/07/21 03:34:54;;;;;;;1.15;0.52;;;12.90;99.90;;;;;;5037214;28;20052;-70
2023/07/21 03:37:26;;;;;;;1.50;0.60;;;12.90;99.90;;;;;;5040367;28;20045;-70
2023/07/21 03:39:52;;;;;;;1.73;0.80;;;12.90;99.90;;;;;;5074846;28;20052;-70
2023/07/21 03:42:18;;;;;;;1.17;0.57;;;12.90;99.90;;;;;;5042862;28;20517;-70
2023/07/21 03:44:48;;;;;;;1.85;0.98;;;12.90;99.90;;;;;;5045282;28;20136;-70
2023/07/21 03:47:15;;;;;;;1.55;0.60;;;12.90;99.90;;;;;;5075433;28;20033;-70
2023/07/21 03:49:41;;;;;;;2.80;0.90;;;12.90;99.90;;;;;;5041035;28;20447;-70
2023/07/21 03:52:07;;;;;;;0.95;0.43;;;12.90;99.90;;;;;;5077011;28;20040;-70
2023/07/21 03:54:32;;;;;;;1.00;0.57;;;12.90;99.90;;;;;;5042349;28;20522;-70
2023/07/21 03:56:58;;;;;;;1.33;0.50;;;12.90;99.90;;;;;;5038177;28;20045;-70
2023/07/21 03:59:25;;;;;;;1.23;0.73;;;12.90;99.90;;;;;;5039240;28;20139;-70
2023/07/21 04:01:51;;;;;;;1.20;0.40;;;12.80;99.90;;;;;;5037271;28;20045;-70
2023/07/21 04:04:16;;;;;;;1.20;0.60;;;12.90;99.90;;;;;;5037325;28;20037;-70
2023/07/21 04:06:43;;;;;;;1.80;0.82;;;12.80;99.90;;;;;;5074711;28;20033;-70
2023/07/21 04:09:12;;;;;;;1.40;0.50;;;12.80;99.90;;;;;;5037119;28;20060;-70
2023/07/21 04:11:37;;;;;;;1.50;0.70;;;12.80;99.90;;;;;;5038038;28;20101;-70
2023/07/21 04:14:03;;;;;;;1.40;0.60;;;12.80;99.90;;;;;;5037457;28;20061;-70
2023/07/21 04:16:30;;;;;;;2.20;0.65;;;12.80;99.90;;;;;;5039227;28;20515;-70
2023/07/21 04:18:56;;;;;;;1.75;0.70;;;12.80;99.90;;;;;;5035040;28;20044;-70
2023/07/21 04:21:22;;;;;;;1.13;0.60;;;12.80;99.90;;;;;;5073684;28;20049;-70
2023/07/21 04:23:48;;;;;;;1.50;0.70;;;12.80;99.90;;;;;;5035094;28;20051;-70
2023/07/21 04:26:15;;;;;;;1.02;0.60;;;12.80;99.90;;;;;;5037597;28;20580;-70
2023/07/21 04:28:42;;;;;;;0.95;0.55;;;12.80;99.90;;;;;;5038953;28;20494;-70
2023/07/21 04:31:11;;;;;;;1.17;0.70;;;12.80;99.90;;;;;;5039665;28;20028;-70
2023/07/21 04:33:37;;;;;;;1.40;0.70;;;12.90;99.90;;;;;;5033112;28;20041;-70
2023/07/21 04:36:04;;;;;;;1.35;0.60;;;12.90;99.90;;;;;;5039580;28;20033;-70
2023/07/21 04:38:30;;;;;;;2.03;0.73;;;12.90;99.90;;;;;;5038757;28;20048;-70
2023/07/21 04:40:55;;;;;;;1.83;1.00;;;12.90;99.90;;;;;;5038158;28;20037;-70
2023/07/21 04:43:21;;;;;;;2.13;0.70;;;12.90;99.90;;;;;;5049784;28;20074;-70
2023/07/21 04:45:47;;;;;;;1.60;0.68;;;12.90;99.90;;;;;;5038993;28;20354;-70
2023/07/21 04:48:12;;;;;;;2.10;0.77;;;12.90;99.90;;;;;;5038677;28;20060;-70
2023/07/21 04:50:42;;;;;;;1.55;0.68;;;13.00;99.90;;;;;;5036584;28;20037;-70
2023/07/21 04:53:08;;;;;;;2.47;0.80;;;13.00;99.90;;;;;;5071612;28;20647;-70
2023/07/21 04:55:34;;;;;;;1.10;0.60;;;13.00;99.90;;;;;;5035929;28;20044;-70
2023/07/21 04:58:01;;;;;;;2.28;1.15;;;13.10;99.90;;;;;;5038549;28;20033;-70
2023/07/21 05:00:27;;;;;;;2.88;0.80;;;13.10;99.90;;;;;;5038084;28;20445;-70
2023/07/21 05:02:53;;;;;;;1.88;0.82;;;13.10;99.90;;;;;;5066044;28;20032;-70
2023/07/21 05:05:18;;;;;;;2.15;1.10;;;13.20;99.90;;;;;;5038709;28;20116;-70
2023/07/21 05:07:44;;;;;;;2.83;1.10;;;13.20;99.90;;;;;;5040717;28;20095;-70
2023/07/21 05:10:10;;;;;;;4.20;1.23;;;13.20;99.90;;;;;;5039302;28;20048;-70
2023/07/21 05:12:36;;;;;;;4.70;1.40;;;13.30;99.90;;;;;;5038601;28;20068;-70
2023/07/21 05:15:01;;;;;;;2.00;1.20;;;13.30;99.90;;;;;;5040115;28;20036;-70
2023/07/21 05:17:27;;;;;;;2.72;1.30;;;13.30;99.90;;;;;;5068874;28;20120;-70
2023/07/21 05:19:53;;;;;;;2.95;1.40;;;13.30;99.90;;;;;;5038333;28;20607;-70
2023/07/21 05:22:19;;;;;;;2.63;1.33;;;13.40;99.90;;;;;;5070591;28;20057;-70
2023/07/21 05:24:44;;;;;;;3.20;1.60;;;13.40;99.90;;;;;;5040544;28;20064;-71
2023/07/21 05:27:11;;;;;;;3.00;1.38;;;13.40;99.90;;;;;;5035357;28;20418;-71
2023/07/21 05:29:37;;;;;;;2.97;1.52;;;13.40;99.90;;;;;;5038272;28;20068;-70
2023/07/21 05:32:03;;;;;;;2.55;1.52;;;13.50;99.90;;;;;;5039092;28;20036;-70
2023/07/21 05:34:32;;;;;;;3.65;1.42;;;13.50;99.90;;;;;;5033538;28;20042;-71
2023/07/21 05:36:58;;;;;;;2.40;1.15;;;13.50;99.90;;;;;;5037102;28;20124;-71
2023/07/21 05:39:29;;;;;;;3.05;1.58;;;13.50;99.90;;;;;;5066197;28;20483;-70
2023/07/21 05:41:58;;;;;;;3.35;1.63;;;13.60;99.90;;;;;;5036269;28;20032;-70
2023/07/21 05:44:25;;;;;;;3.10;1.40;;;13.60;99.90;;;;;;5039559;28;20279;-71
2023/07/21 05:46:51;;;;;;;4.32;1.40;;;13.60;99.90;;;;;;5051418;28;20105;-70
2023/07/21 05:49:16;;;;;;;3.17;1.40;;;13.60;99.90;;;;;;5039017;28;20056;-70
2023/07/21 05:51:43;;;;;;;3.20;1.27;;;13.70;99.90;;;;;;5038321;28;20379;-70
2023/07/21 05:54:08;;;;;;;2.55;1.30;;;13.70;99.90;;;;;;5036451;28;20660;-71
2023/07/21 05:56:34;;;;;;;2.47;1.15;;;13.70;99.90;;;;;;5037457;28;20037;-70
2023/07/21 05:59:00;;;;;;;4.35;1.77;;;13.70;99.90;;;;;;5038900;28;20047;-70
2023/07/21 06:01:27;;;;;;;5.22;1.48;;;13.80;99.90;;;;;;5036663;28;20128;-70
2023/07/21 06:03:52;;;;;;;4.60;1.60;;;13.80;99.90;;;;;;5040424;28;20068;-70
2023/07/21 06:06:18;;;;;;;3.25;1.48;;;13.80;99.90;;;;;;5039603;28;20072;-70
2023/07/21 06:08:43;;;;;;;4.88;1.83;;;13.80;99.90;;;;;;5037312;28;20158;-70
2023/07/21 06:11:09;;;;;;;3.05;1.30;;;14.00;99.90;;;;;;5041072;28;20528;-70
2023/07/21 06:13:35;;;;;;;3.13;1.30;;;14.00;99.90;;;;;;5032411;28;20401;-70
2023/07/21 06:16:01;;;;;;;3.35;1.70;;;14.10;99.90;;;;;;5073732;28;20083;-71
2023/07/21 06:18:27;;;;;;;1.70;1.00;;;14.10;99.90;;;;;;5040909;28;20045;-71
2023/07/21 06:20:52;;;;;;;3.20;1.30;;;14.20;99.90;;;;;;5057338;28;20048;-70
2023/07/21 06:23:19;;;;;;;4.03;1.70;;;14.30;99.90;;;;;;5038927;28;20438;-70
2023/07/21 06:25:45;;;;;;;2.95;1.52;;;14.30;99.90;;;;;;5042244;28;20053;-71
2023/07/21 06:28:12;;;;;;;5.82;1.80;;;14.30;99.90;;;;;;5021966;28;20044;-71
2023/07/21 06:30:38;;;;;;;2.92;1.60;;;14.40;99.90;;;;;;5042576;28;20037;-70
2023/07/21 06:33:05;;;;;;;4.00;1.50;;;14.50;99.90;;;;;;5037303;28;20036;-70
2023/07/21 06:35:31;;;;;;;4.07;1.33;;;14.70;99.90;;;;;;5041472;28;20075;-70
2023/07/21 06:37:57;;;;;;;2.03;1.00;;;14.70;99.90;;;;;;5039031;28;20029;-70
2023/07/21 06:40:23;;;;;;;2.17;1.08;;;14.80;99.90;;;;;;5041137;28;20037;-71
2023/07/21 06:42:49;;;;;;;2.65;0.77;;;15.40;99.90;;;;;;5040653;28;20040;-70
2023/07/21 06:45:15;;;;;;;2.05;1.13;;;16.60;99.90;;;;;;5039256;28;20098;-70
2023/07/21 06:47:41;;;;;;;2.25;1.13;;;17.80;99.90;;;;;;5037879;28;20491;-70
2023/07/21 06:50:07;;;;;;;2.65;1.20;;;19.00;99.90;;;;;;5040865;28;20043;-71
2023/07/21 06:52:32;;;;;;;2.45;1.00;;;20.00;99.90;;;;;;5024845;28;20049;-71
2023/07/21 06:54:58;;;;;;;2.63;1.08;;;20.80;99.90;;;;;;5036966;28;20056;-69
2023/07/21 06:57:24;;;;;;;3.28;1.00;;;21.40;99.90;;;;;;5038989;28;20510;-72
2023/07/21 06:59:50;;;;;;;0.93;0.43;;;21.70;99.40;;;;;;5042712;28;20051;-71
2023/07/21 07:02:17;;;;;;;2.30;0.80;;;21.40;99.90;;;;;;5024418;28;20609;-71
2023/07/21 07:04:42;;;;;;;1.35;0.60;;;21.00;99.90;;;;;;5039337;28;20044;-71
2023/07/21 07:07:08;;;;;;;1.77;0.40;;;20.60;99.90;;;;;;5042830;28;20486;-71
2023/07/21 07:09:34;;;;;;;1.75;0.90;;;20.10;99.90;;;;;;5045376;28;20036;-71
2023/07/21 07:11:59;;;;;;;3.10;0.70;;;19.60;99.90;;;;;;5037248;28;20040;-70
2023/07/21 07:14:26;;;;;;;4.35;0.75;;;19.10;99.90;;;;;;5040491;28;20037;-70
2023/07/21 07:16:52;;;;;;;2.72;0.75;;;18.70;99.90;;;;;;5027520;28;20049;-70
2023/07/21 07:19:19;;;;;;;1.17;0.60;;;18.40;99.90;;;;;;5045065;28;20041;-70
2023/07/21 07:21:44;;;;;;;2.40;1.00;;;18.20;99.90;;;;;;5044982;28;20119;-70
2023/07/21 07:24:10;;;;;;;2.75;0.60;;;18.00;99.90;;;;;;5059116;28;20178;-70
2023/07/21 07:26:36;;;;;;;2.88;0.85;;;17.80;99.90;;;;;;5076698;28;20144;-70
2023/07/21 07:29:04;;;;;;;2.67;1.17;;;17.70;99.90;;;;;;5042817;28;20167;-70
2023/07/21 07:31:32;;;;;;;1.17;0.60;;;17.50;99.90;;;;;;5027164;28;20041;-70
2023/07/21 07:33:58;;;;;;;2.53;0.65;;;17.40;99.90;;;;;;5040294;28;20591;-70
2023/07/21 07:36:24;;;;;;;1.50;0.60;;;17.30;99.90;;;;;;5044997;28;20080;-70
2023/07/21 07:38:50;;;;;;;2.08;0.73;;;17.20;99.90;;;;;;5043499;28;20076;-70
2023/07/21 07:41:18;;;;;;;1.40;0.77;;;17.10;99.90;;;;;;5028082;28;20433;-70
2023/07/21 07:43:45;;;;;;;1.73;0.70;;;16.90;99.90;;;;;;5044331;28;20103;-70
2023/07/21 07:46:11;;;;;;;1.40;0.70;;;16.90;99.90;;;;;;5040475;28;20067;-70
2023/07/21 07:48:37;;;;;;;1.33;0.70;;;16.90;99.90;;;;;;5043274;28;20594;-70
2023/07/21 07:51:04;;;;;;;1.70;0.80;;;16.90;99.90;;;;;;5044831;28;20033;-70
2023/07/21 07:53:31;;;;;;;1.70;0.65;;;16.90;99.90;;;;;;5075413;28;20076;-70
2023/07/21 07:55:57;;;;;;;2.20;0.77;;;16.90;99.90;;;;;;5044919;28;20033;-70
2023/07/21 07:58:22;;;;;;;1.75;0.82;;;16.80;99.90;;;;;;5043723;28;20095;-70
2023/07/21 08:00:48;;;;;;;1.40;0.70;;;16.90;99.90;;;;;;5041372;28;20073;-70
2023/07/21 08:03:14;;;;;;;4.88;1.00;;;16.90;99.90;;;;;;5025821;28;20041;-70
2023/07/21 08:05:41;;;;;;;1.23;0.50;;;16.90;99.90;;;;;;5077548;28;20453;-70
2023/07/21 08:08:08;;;;;;;3.00;0.70;;;16.80;99.90;;;;;;5043328;28;20107;-70
2023/07/21 08:10:34;;;;;;;2.25;0.70;;;16.80;99.90;;;;;;5041294;28;20078;-70
2023/07/21 08:13:04;;;;;;;2.60;0.60;;;16.80;99.90;;;;;;5043140;28;20075;-70
2023/07/21 08:15:30;;;;;;;1.40;0.60;;;16.80;99.90;;;;;;5041945;28;20125;-70
2023/07/21 08:17:55;;;;;;;1.38;0.55;;;16.80;99.90;;;;;;5042620;28;20727;-70
2023/07/21 08:20:21;;;;;;;1.58;0.68;;;16.80;99.90;;;;;;5052820;28;20045;-70
2023/07/21 08:22:51;;;;;;;2.67;0.60;;;16.90;99.90;;;;;;5043870;28;20376;-70
2023/07/21 08:25:18;;;;;;;1.50;0.50;;;16.80;99.90;;;;;;5076091;28;20036;-70
2023/07/21 08:27:43;;;;;;;1.70;0.68;;;16.90;99.90;;;;;;5042231;28;20041;-70
2023/07/21 08:30:10;;;;;;;1.42;0.60;;;16.90;99.90;;;;;;5044929;28;20035;-70
2023/07/21 08:32:37;;;;;;;2.50;0.70;;;17.00;99.90;;;;;;5043488;28;20092;-70
2023/07/21 08:35:04;;;;;;;1.40;0.50;;;17.10;99.90;;;;;;5041156;28;20426;-70
2023/07/21 08:37:30;;;;;;;1.63;0.63;;;17.10;99.90;;;;;;5044117;28;20468;-70
2023/07/21 08:39:56;;;;;;;1.88;0.50;;;17.10;99.90;;;;;;5042283;28;20064;-70
2023/07/21 08:42:26;;;;;;;1.10;0.60;;;17.10;99.90;;;;;;5057789;28;20045;-70
2023/07/21 08:44:53;;;;;;;2.15;0.93;;;17.20;99.90;;;;;;5039755;28;20048;-70
2023/07/21 08:47:23;;;;;;;1.27;0.65;;;17.20;99.90;;;;;;5037094;28;20348;-70
2023/07/21 08:49:48;;;;;;;2.45;0.70;;;17.20;99.90;;;;;;5076802;28;20557;-70
2023/07/21 08:52:14;;;;;;;1.92;0.60;;;17.30;99.90;;;;;;5042621;28;20115;-70
2023/07/21 08:54:40;;;;;;;2.95;0.50;;;17.30;99.90;;;;;;5040087;28;20029;-70
2023/07/21 08:57:06;;;;;;;2.63;0.70;;;17.30;99.90;;;;;;5043140;28;20521;-70
2023/07/21 08:59:31;;;;;;;2.20;0.57;;;17.30;99.90;;;;;;5036620;28;20058;-71
2023/07/21 09:01:58;;;;;;;1.63;0.77;;;17.30;99.90;;;;;;5039016;28;20037;-70
2023/07/21 09:04:25;;;;;;;5.22;0.80;;;17.30;99.90;;;;;;5038325;28;20051;-70
2023/07/21 09:06:52;;;;;;;1.10;0.50;;;17.40;99.90;;;;;;5040645;28;20068;-71
2023/07/21 09:09:19;;;;;;;1.90;1.00;;;17.40;99.90;;;;;;5036713;28;20045;-68
2023/07/21 09:11:45;;;;;;;1.52;0.75;;;17.40;99.90;;;;;;5037309;28;20024;-70
2023/07/21 09:14:11;;;;;;;1.73;0.70;;;17.50;99.90;;;;;;5024877;28;20033;-70
2023/07/21 09:16:38;;;;;;;2.75;0.70;;;17.50;99.90;;;;;;5037491;28;20041;-70
2023/07/21 09:19:05;;;;;;;1.80;0.68;;;17.50;99.90;;;;;;5043924;28;20110;-70
2023/07/21 09:21:31;;;;;;;2.35;0.90;;;17.60;99.90;;;;;;5037834;28;20056;-70
2023/07/21 09:24:04;;;;;;;3.20;0.70;;;17.70;99.90;;;;;;5038698;28;20469;-70
2023/07/21 09:26:30;;;;;;;1.55;0.75;;;17.80;99.90;;;;;;5038768;28;20071;-70
2023/07/21 09:28:56;;;;;;;1.63;0.80;;;17.90;99.90;;;;;;5072985;28;20033;-70
2023/07/21 09:31:29;;;;;;;1.38;0.60;;;17.90;99.90;;;;;;5073401;28;20052;-70
2023/07/21 09:34:05;;;;;;;2.63;0.70;;;18.00;99.90;;;;;;5042376;28;20033;-70
2023/07/21 09:36:30;;;;;;;1.33;0.63;;;18.00;99.90;;;;;;5042482;28;20115;-71
2023/07/21 09:39:00;;;;;;;1.15;0.63;;;18.00;99.90;;;;;;5041290;28;20520;-70
2023/07/21 09:41:25;;;;;;;2.55;0.75;;;18.00;99.90;;;;;;5073028;28;20040;-71
2023/07/21 09:43:52;;;;;;;2.05;0.63;;;18.00;99.90;;;;;;5036698;28;20045;-70
2023/07/21 09:46:18;;;;;;;1.70;0.68;;;18.00;99.90;;;;;;5043362;28;20037;-71
2023/07/21 09:48:44;;;;;;;1.45;0.68;;;18.00;99.90;;;;;;5041602;28;20041;-70
2023/07/21 09:51:10;;;;;;;1.38;0.55;;;18.10;99.90;;;;;;5041782;28;20037;-71
2023/07/21 09:53:42;;;;;;;1.20;0.50;;;18.00;99.90;;;;;;5038211;28;20558;-71
2023/07/21 09:56:09;;;;;;;0.95;0.57;;;18.00;99.70;;;;;;5073790;28;20041;-70
2023/07/21 09:58:41;;;;;;;3.30;1.02;;;17.90;99.60;;;;;;5037393;28;20593;-70
2023/07/21 10:01:09;;;;;;;1.77;0.63;;;18.00;99.50;;;;;;5041963;28;20376;-71
2023/07/21 10:03:36;;;;;;;1.73;0.90;;;18.10;99.50;;;;;;5040452;28;20118;-71
2023/07/21 10:06:03;;;;;;;2.97;0.52;;;18.20;99.50;;;;;;5026450;28;20068;-74
2023/07/21 10:08:31;;;;;;;1.55;0.70;;;18.40;99.40;;;;;;5034080;28;20098;-71
2023/07/21 10:10:58;;;;;;;1.42;0.70;;;18.50;99.30;;;;;;5040243;28;20064;-71
2023/07/21 10:13:29;;;;;;;4.82;1.02;;;18.70;99.30;;;;;;5020022;28;20101;-71
2023/07/21 10:16:09;;;;;;;2.22;0.73;;;18.80;99.10;;;;;;5043108;28;20430;-71
2023/07/21 10:18:36;;;;;;;0.82;0.47;;;18.90;99.00;;;;;;5039861;28;20144;-70
2023/07/21 10:21:03;;;;;;;1.60;0.60;;;18.90;98.80;;;;;;5040830;28;20036;-71
2023/07/21 10:23:37;;;;;;;0.85;0.32;;;18.80;98.40;;;;;;5073459;28;20407;-71
2023/07/21 10:26:04;;;;;;;1.45;0.60;;;18.70;98.40;;;;;;5038328;28;20124;-71
2023/07/21 10:28:30;;;;;;;1.60;0.82;;;18.70;98.50;;;;;;5036462;28;20123;-71
2023/07/21 10:31:21;;;;;;;1.38;0.60;;;18.60;98.60;;;;;;5037440;28;20452;-71
2023/07/21 10:34:05;;;;;;;1.40;0.60;;;18.60;98.20;;;;;;5041210;28;20033;-71
2023/07/21 10:37:02;;;;;;;1.63;0.63;;;18.60;98.00;;;;;;5045447;28;20032;-71
2023/07/21 10:39:31;;;;;;;2.97;0.85;;;18.60;98.10;;;;;;5016153;28;20085;-71
2023/07/21 10:42:05;;;;;;;1.40;0.60;;;18.60;98.80;;;;;;5044523;28;20051;-71
2023/07/21 10:44:37;;;;;;;1.48;0.70;;;18.60;98.60;;;;;;5077530;28;20054;-71
2023/07/21 10:47:05;;;;;;;2.05;0.63;;;18.70;98.60;;;;;;5045835;28;20123;-71
2023/07/21 10:49:31;;;;;;;1.65;0.75;;;18.80;98.50;;;;;;5019215;28;20399;-71
2023/07/21 10:51:57;;;;;;;1.25;0.68;;;18.90;98.60;;;;;;5043657;28;20090;-71
2023/07/21 10:54:23;;;;;;;2.15;0.60;;;18.90;98.60;;;;;;5042281;28;20432;-71
2023/07/21 10:56:50;;;;;;;2.55;0.85;;;18.90;98.40;;;;;;5075354;28;20033;-70
2023/07/21 10:59:18;;;;;;;1.33;0.70;;;18.90;98.50;;;;;;5039559;28;20032;-71
2023/07/21 11:01:51;;;;;;;1.50;0.63;;;18.90;98.40;;;;;;5044942;28;20033;-71
2023/07/21 11:04:18;;;;;;;2.03;0.60;;;18.90;98.50;;;;;;5043561;28;20037;-70
2023/07/21 11:06:46;;;;;;;2.72;0.85;;;19.00;98.50;;;;;;5043560;28;20106;-71
2023/07/21 11:09:12;;;;;;;2.25;0.65;;;19.00;98.80;;;;;;5041107;28;20037;-71
2023/07/21 11:11:44;;;;;;;1.45;0.60;;;19.10;98.40;;;;;;5035261;28;20514;-71
2023/07/21 11:14:14;;;;;;;1.35;0.65;;;19.20;98.10;;;;;;5036269;28;20036;-74
2023/07/21 11:16:53;;;;;;;9.98;2.20;;;19.20;97.90;;;;;;5054830;28;20132;-74
2023/07/21 11:19:20;;;;;;;4.40;1.35;;;19.30;97.60;;;;;;5018245;28;20048;-75
2023/07/21 11:21:49;;;;;;;4.38;0.80;;;19.20;97.50;;;;;;5037124;28;20043;-80
2023/07/21 11:24:25;;;;;;;1.23;0.60;;;19.30;97.30;;;;;;5019619;28;20044;-71
2023/07/21 11:26:56;;;;;;;2.13;0.90;;;19.20;97.10;;;;;;5037703;28;20132;-72
2023/07/21 11:29:23;;;;;;;1.52;0.80;;;19.20;97.00;;;;;;5070999;28;20053;-73
2023/07/21 11:31:49;;;;;;;1.27;0.73;;;19.20;97.00;;;;;;5037677;28;20517;-72
2023/07/21 11:34:23;;;;;;;1.45;0.63;;;19.10;96.90;;;;;;5074584;28;20032;-71
2023/07/21 11:36:58;;;;;;;2.05;0.80;;;19.10;96.70;;;;;;5073991;28;20514;-72
2023/07/21 11:39:27;;;;;;;1.57;0.70;;;19.10;96.70;;;;;;5038062;28;20048;-71
2023/07/21 11:41:56;;;;;;;1.63;0.50;;;19.00;96.50;;;;;;5034113;28;20052;-71
2023/07/21 11:44:28;;;;;;;1.15;0.65;;;19.00;96.30;;;;;;5041778;28;20041;-71
2023/07/21 11:47:06;;;;;;;1.67;0.60;;;19.00;96.20;;;;;;5038256;28;20098;-71
2023/07/21 11:49:36;;;;;;;0.85;0.40;;;19.00;96.40;;;;;;5038052;28;20045;-71
2023/07/21 11:52:03;;;;;;;1.52;0.70;;;19.00;96.60;;;;;;5039266;28;20028;-71
2023/07/21 11:54:36;;;;;;;2.72;0.90;;;19.10;96.80;;;;;;5057754;28;20037;-71
2023/07/21 11:57:02;;;;;;;2.33;0.80;;;19.20;96.80;;;;;;5017893;28;20498;-71
2023/07/21 11:59:28;;;;;;;2.20;0.80;;;19.30;96.60;;;;;;5040323;28;20048;-71
2023/07/21 12:01:55;;;;;;;1.33;0.70;;;19.30;96.30;;;;;;5025398;28;20541;-70
2023/07/21 12:04:22;;;;;;;2.15;0.90;;;19.40;96.20;;;;;;5043278;28;20553;-70
2023/07/21 12:06:48;;;;;;;1.15;0.65;;;19.40;96.00;;;;;;5022810;28;20040;-70
2023/07/21 12:09:14;;;;;;;1.48;0.63;;;19.50;95.80;;;;;;5040908;28;20138;-70
2023/07/21 12:11:39;;;;;;;1.05;0.50;;;19.50;95.60;;;;;;5041005;28;20045;-70
2023/07/21 12:14:05;;;;;;;1.65;0.60;;;19.60;95.40;;;;;;5042445;28;20581;-70
2023/07/21 12:16:34;;;;;;;1.65;0.57;;;19.70;95.20;;;;;;5039030;28;20099;-70
2023/07/21 12:18:59;;;;;;;3.13;0.50;;;19.70;94.80;;;;;;5041831;28;20050;-70
2023/07/21 12:21:25;;;;;;;1.13;0.60;;;19.90;94.90;;;;;;5042569;28;20044;-70
2023/07/21 12:23:51;;;;;;;1.27;0.50;;;20.00;94.70;;;;;;5042736;28;20124;-70
2023/07/21 12:26:18;;;;;;;1.23;0.50;;;20.10;94.30;;;;;;5039515;28;20462;-70
2023/07/21 12:28:45;;;;;;;1.45;0.65;;;20.10;93.90;;;;;;5022681;28;20049;-70
2023/07/21 12:31:12;;;;;;;0.70;0.43;;;20.20;93.50;;;;;;5055414;28;20055;-70
2023/07/21 12:33:39;;;;;;;0.77;0.50;;;20.10;93.20;;;;;;5040364;28;20045;-71
2023/07/21 12:36:05;;;;;;;1.80;0.88;;;20.10;92.70;;;;;;5035871;28;20486;-71
2023/07/21 12:38:31;;;;;;;0.65;0.35;;;20.20;91.90;;;;;;5037541;28;20029;-71
2023/07/21 12:40:57;;;;;;;2.50;0.45;;;20.20;91.50;;;;;;5040797;28;20041;-71
2023/07/21 12:43:22;;;;;;;1.25;0.50;;;20.30;91.50;;;;;;5051965;28;20044;-71
2023/07/21 12:45:48;;;;;;;1.33;0.50;;;20.30;91.40;;;;;;5039012;28;20038;-71
2023/07/21 12:48:14;;;;;;;0.65;0.50;;;20.20;91.30;;;;;;5040987;28;20087;-71